sensor_id;sensor_type;location;lat;lon;timestamp;pressure;altitude;pressure_sealevel;temperature;humidity
3524;BME280;1776;53.330;11.498;2022-12-29T00:02:25;18676.38;;;-147.39;85.14
3524;BME280;1776;53.330;11.498;2022-12-29T00:04:50;18670.28;;;-147.39;85.27
3524;BME280;1776;53.330;11.498;2022-12-29T00:07:16;18694.66;;;-147.39;85.46
3524;BME280;1776;53.330;11.498;2022-12-29T00:09:42;18688.56;;;-147.39;85.19
3524;BME280;1776;53.330;11.498;2022-12-29T00:12:07;18712.94;;;-147.39;85.30
3524;BME280;1776;53.330;11.498;2022-12-29T00:14:32;18708.88;;;-147.39;85.25
3524;BME280;1776;53.330;11.498;2022-12-29T00:17:16;18725.13;;;-147.39;85.13
3524;BME280;1776;53.330;11.498;2022-12-29T00:19:41;18680.44;;;-147.39;85.54
3524;BME280;1776;53.330;11.498;2022-12-29T00:22:25;18674.34;;;-147.39;85.65
3524;BME280;1776;53.330;11.498;2022-12-29T00:25:11;18794.16;;;-147.39;85.56
3524;BME280;1776;53.330;11.498;2022-12-29T00:27:55;18652.03;;;-147.39;85.53
3524;BME280;1776;53.330;11.498;2022-12-29T00:30:40;18684.50;;;-147.39;85.64
3524;BME280;1776;53.330;11.498;2022-12-29T00:33:31;18672.31;;;-147.39;85.57
3524;BME280;1776;53.330;11.498;2022-12-29T00:36:25;18700.75;;;-147.39;85.78
3524;BME280;1776;53.330;11.498;2022-12-29T00:39:02;18670.28;;;-147.39;85.51
3524;BME280;1776;53.330;11.498;2022-12-29T00:41:47;18658.13;;;-147.39;85.25
3524;BME280;1776;53.330;11.498;2022-12-29T00:44:31;18643.91;;;-147.39;85.41
3524;BME280;1776;53.330;11.498;2022-12-29T00:46:57;18668.25;;;-147.39;85.35
3524;BME280;1776;53.330;11.498;2022-12-29T00:49:22;18660.13;;;-147.39;85.38
3524;BME280;1776;53.330;11.498;2022-12-29T00:52:03;18609.38;;;-147.39;85.23
3524;BME280;1776;53.330;11.498;2022-12-29T00:54:30;18650.00;;;-147.39;85.42
3524;BME280;1776;53.330;11.498;2022-12-29T00:56:56;18645.94;;;-147.39;85.47
3524;BME280;1776;53.330;11.498;2022-12-29T00:59:22;18773.84;;;-147.39;85.29
3524;BME280;1776;53.330;11.498;2022-12-29T01:01:49;18684.50;;;-147.39;85.29
3524;BME280;1776;53.330;11.498;2022-12-29T01:04:14;18737.31;;;-147.39;85.43
3524;BME280;1776;53.330;11.498;2022-12-29T01:06:40;18678.41;;;-147.39;85.09
3524;BME280;1776;53.330;11.498;2022-12-29T01:09:07;18680.44;;;-147.39;85.17
3524;BME280;1776;53.330;11.498;2022-12-29T01:11:51;18727.16;;;-147.39;84.96
3524;BME280;1776;53.330;11.498;2022-12-29T01:14:18;18702.78;;;-147.39;84.97
3524;BME280;1776;53.330;11.498;2022-12-29T01:16:44;18714.97;;;-147.39;84.79
3524;BME280;1776;53.330;11.498;2022-12-29T01:19:09;18745.41;;;-147.39;84.91
3524;BME280;1776;53.330;11.498;2022-12-29T01:21:34;18739.34;;;-147.39;84.68
3524;BME280;1776;53.330;11.498;2022-12-29T01:24:00;18792.13;;;-147.39;84.68
3524;BME280;1776;53.330;11.498;2022-12-29T01:26:25;18775.88;;;-147.39;84.37
3524;BME280;1776;53.330;11.498;2022-12-29T01:28:50;18796.19;;;-147.39;84.55
3524;BME280;1776;53.330;11.498;2022-12-29T01:31:16;18717.00;;;-147.39;84.77
3524;BME280;1776;53.330;11.498;2022-12-29T01:33:42;18737.31;;;-147.39;84.83
3524;BME280;1776;53.330;11.498;2022-12-29T01:36:10;18737.31;;;-147.39;84.70
3524;BME280;1776;53.330;11.498;2022-12-29T01:38:37;18751.50;;;-147.39;84.71
3524;BME280;1776;53.330;11.498;2022-12-29T01:41:04;18769.78;;;-147.39;84.70
3524;BME280;1776;53.330;11.498;2022-12-29T01:46:35;18721.06;;;-147.39;84.78
3524;BME280;1776;53.330;11.498;2022-12-29T01:51:36;18741.34;;;-147.39;84.89
3524;BME280;1776;53.330;11.498;2022-12-29T01:54:05;18786.03;;;-147.39;84.62
3524;BME280;1776;53.330;11.498;2022-12-29T01:56:32;18700.75;;;-147.39;84.79
3524;BME280;1776;53.330;11.498;2022-12-29T01:59:04;18763.69;;;-147.39;84.77
3524;BME280;1776;53.330;11.498;2022-12-29T02:01:31;18879.44;;;-147.39;84.72
3524;BME280;1776;53.330;11.498;2022-12-29T02:03:58;18788.06;;;-147.39;84.81
3524;BME280;1776;53.330;11.498;2022-12-29T02:06:31;18769.78;;;-147.39;85.05
3524;BME280;1776;53.330;11.498;2022-12-29T02:08:58;18731.22;;;-147.39;85.02
3524;BME280;1776;53.330;11.498;2022-12-29T02:11:25;18660.13;;;-147.39;85.07
3524;BME280;1776;53.330;11.498;2022-12-29T02:13:51;18747.44;;;-147.39;85.37
3524;BME280;1776;53.330;11.498;2022-12-29T02:16:44;18690.59;;;-147.39;85.47
3524;BME280;1776;53.330;11.498;2022-12-29T02:27:51;18729.19;;;-147.39;84.75
3524;BME280;1776;53.330;11.498;2022-12-29T02:30:42;18710.91;;;-147.39;84.82
3524;BME280;1776;53.330;11.498;2022-12-29T02:42:17;18769.78;;;-147.39;84.48
3524;BME280;1776;53.330;11.498;2022-12-29T02:45:08;18773.84;;;-147.39;84.41
3524;BME280;1776;53.330;11.498;2022-12-29T02:50:29;18775.88;;;-147.39;84.29
3524;BME280;1776;53.330;11.498;2022-12-29T02:53:09;18757.59;;;-147.39;84.20
3524;BME280;1776;53.330;11.498;2022-12-29T02:55:36;18808.38;;;-147.39;84.20
3524;BME280;1776;53.330;11.498;2022-12-29T02:58:21;18838.81;;;-147.39;84.22
3524;BME280;1776;53.330;11.498;2022-12-29T03:04:03;18826.63;;;-147.39;83.87
3524;BME280;1776;53.330;11.498;2022-12-29T03:06:57;18840.84;;;-147.39;83.66
3524;BME280;1776;53.330;11.498;2022-12-29T03:12:30;18938.31;;;-147.39;83.43
3524;BME280;1776;53.330;11.498;2022-12-29T03:15:33;18938.31;;;-147.39;83.14
3524;BME280;1776;53.330;11.498;2022-12-29T03:18:23;18938.31;;;-147.39;82.95
3524;BME280;1776;53.330;11.498;2022-12-29T03:21:34;18962.69;;;-147.39;82.89
3524;BME280;1776;53.330;11.498;2022-12-29T03:23:41;19003.31;;;-147.39;82.82
3524;BME280;1776;53.330;11.498;2022-12-29T03:26:10;18851.00;;;-147.39;82.89
3524;BME280;1776;53.330;11.498;2022-12-29T03:28:53;18950.50;;;-147.39;83.09
3524;BME280;1776;53.330;11.498;2022-12-29T03:31:25;18966.75;;;-147.39;83.10
3524;BME280;1776;53.330;11.498;2022-12-29T03:33:51;18966.75;;;-147.39;82.94
3524;BME280;1776;53.330;11.498;2022-12-29T03:36:32;18343.41;;;-147.39;82.93
3524;BME280;1776;53.330;11.498;2022-12-29T03:39:08;19027.66;;;-147.39;82.69
3524;BME280;1776;53.330;11.498;2022-12-29T03:41:34;19078.44;;;-147.39;82.92
3524;BME280;1776;53.330;11.498;2022-12-29T03:44:01;18997.22;;;-147.39;82.98
3524;BME280;1776;53.330;11.498;2022-12-29T03:46:26;18997.22;;;-147.39;83.12
3524;BME280;1776;53.330;11.498;2022-12-29T03:48:51;18989.09;;;-147.39;82.96
3524;BME280;1776;53.330;11.498;2022-12-29T03:51:16;19005.34;;;-147.39;82.79
3524;BME280;1776;53.330;11.498;2022-12-29T03:53:42;19017.50;;;-147.39;82.83
3524;BME280;1776;53.330;11.498;2022-12-29T03:56:07;18960.66;;;-147.39;82.64
3524;BME280;1776;53.330;11.498;2022-12-29T03:58:32;19045.94;;;-147.39;82.46
3524;BME280;1776;53.330;11.498;2022-12-29T04:00:58;19039.84;;;-147.39;82.41
3524;BME280;1776;53.330;11.498;2022-12-29T04:03:23;19074.38;;;-147.39;82.31
3524;BME280;1776;53.330;11.498;2022-12-29T04:05:48;19090.63;;;-147.39;82.02
3524;BME280;1776;53.330;11.498;2022-12-29T04:08:13;19100.78;;;-147.39;82.10
3524;BME280;1776;53.330;11.498;2022-12-29T04:10:39;19110.94;;;-147.39;82.16
3524;BME280;1776;53.330;11.498;2022-12-29T04:13:04;19080.47;;;-147.39;82.37
3524;BME280;1776;53.330;11.498;2022-12-29T04:15:29;19019.53;;;-147.39;82.65
3524;BME280;1776;53.330;11.498;2022-12-29T04:17:55;19102.81;;;-147.39;82.48
3524;BME280;1776;53.330;11.498;2022-12-29T04:20:20;19052.03;;;-147.39;82.10
3524;BME280;1776;53.330;11.498;2022-12-29T04:23:04;19119.03;;;-147.39;82.30
3524;BME280;1776;53.330;11.498;2022-12-29T04:25:31;19092.66;;;-147.39;82.14
3524;BME280;1776;53.330;11.498;2022-12-29T04:27:56;19112.97;;;-147.39;82.15
3524;BME280;1776;53.330;11.498;2022-12-29T04:30:22;19141.38;;;-147.39;82.06
3524;BME280;1776;53.330;11.498;2022-12-29T04:32:47;19157.63;;;-147.39;81.79
3524;BME280;1776;53.330;11.498;2022-12-29T04:35:12;19149.50;;;-147.39;81.71
3524;BME280;1776;53.330;11.498;2022-12-29T04:37:38;19167.78;;;-147.39;81.56
3524;BME280;1776;53.330;11.498;2022-12-29T04:40:03;19224.66;;;-147.39;81.35
3524;BME280;1776;53.330;11.498;2022-12-29T04:42:29;19283.53;;;-147.39;81.22
3524;BME280;1776;53.330;11.498;2022-12-29T04:44:54;19246.97;;;-147.39;81.19
3524;BME280;1776;53.330;11.498;2022-12-29T04:47:19;19242.91;;;-147.39;81.27
3524;BME280;1776;53.330;11.498;2022-12-29T04:49:44;19287.59;;;-147.39;81.10
3524;BME280;1776;53.330;11.498;2022-12-29T04:52:10;19271.34;;;-147.39;81.28
3524;BME280;1776;53.330;11.498;2022-12-29T04:54:35;19212.47;;;-147.39;81.39
3524;BME280;1776;53.330;11.498;2022-12-29T04:57:00;19265.25;;;-147.39;81.29
3524;BME280;1776;53.330;11.498;2022-12-29T04:59:26;19269.31;;;-147.39;81.21
3524;BME280;1776;53.330;11.498;2022-12-29T05:01:51;19275.41;;;-147.39;81.31
3524;BME280;1776;53.330;11.498;2022-12-29T05:04:16;19238.84;;;-147.39;81.79
3524;BME280;1776;53.330;11.498;2022-12-29T05:06:42;19192.16;;;-147.39;82.33
3524;BME280;1776;53.330;11.498;2022-12-29T05:09:07;19102.81;;;-147.39;83.12
3524;BME280;1776;53.330;11.498;2022-12-29T05:11:32;19084.53;;;-147.39;83.43
3524;BME280;1776;53.330;11.498;2022-12-29T05:13:57;18970.81;;;-147.39;84.12
3524;BME280;1776;53.330;11.498;2022-12-29T05:16:23;18966.75;;;-147.39;84.44
3524;BME280;1776;53.330;11.498;2022-12-29T05:18:48;18938.31;;;-147.39;84.58
3524;BME280;1776;53.330;11.498;2022-12-29T05:21:13;18924.09;;;-147.39;84.45
3524;BME280;1776;53.330;11.498;2022-12-29T05:23:38;18920.03;;;-147.39;84.58
3524;BME280;1776;53.330;11.498;2022-12-29T05:26:04;18918.00;;;-147.39;84.60
3524;BME280;1776;53.330;11.498;2022-12-29T05:28:29;18940.34;;;-147.39;84.68
3524;BME280;1776;53.330;11.498;2022-12-29T05:30:54;18930.19;;;-147.39;84.43
3524;BME280;1776;53.330;11.498;2022-12-29T05:33:19;18887.56;;;-147.39;84.62
3524;BME280;1776;53.330;11.498;2022-12-29T05:35:45;18936.28;;;-147.39;84.40
3524;BME280;1776;53.330;11.498;2022-12-29T05:38:10;18940.34;;;-147.39;84.51
3524;BME280;1776;53.330;11.498;2022-12-29T05:40:36;18907.88;;;-147.39;84.59
3524;BME280;1776;53.330;11.498;2022-12-29T05:43:01;19017.50;;;-147.39;84.48
3524;BME280;1776;53.330;11.498;2022-12-29T05:45:26;18946.44;;;-147.39;84.43
3524;BME280;1776;53.330;11.498;2022-12-29T05:47:52;19005.34;;;-147.39;84.21
3524;BME280;1776;53.330;11.498;2022-12-29T05:50:17;18980.97;;;-147.39;84.02
3524;BME280;1776;53.330;11.498;2022-12-29T05:52:42;18968.78;;;-147.39;84.19
3524;BME280;1776;53.330;11.498;2022-12-29T05:55:08;19009.38;;;-147.39;83.97
3524;BME280;1776;53.330;11.498;2022-12-29T05:57:33;19100.78;;;-147.39;84.04
3524;BME280;1776;53.330;11.498;2022-12-29T05:59:58;19029.69;;;-147.39;83.71
3524;BME280;1776;53.330;11.498;2022-12-29T06:02:23;19017.50;;;-147.39;83.47
3524;BME280;1776;53.330;11.498;2022-12-29T06:04:49;19041.88;;;-147.39;83.33
3524;BME280;1776;53.330;11.498;2022-12-29T06:07:14;19066.25;;;-147.39;83.35
3524;BME280;1776;53.330;11.498;2022-12-29T06:09:39;19060.16;;;-147.39;83.25
3524;BME280;1776;53.330;11.498;2022-12-29T06:12:05;19285.56;;;-147.39;83.14
3524;BME280;1776;53.330;11.498;2022-12-29T06:14:30;19054.06;;;-147.39;83.04
3524;BME280;1776;53.330;11.498;2022-12-29T06:16:55;19090.63;;;-147.39;83.09
3524;BME280;1776;53.330;11.498;2022-12-29T06:19:21;19271.34;;;-147.39;82.81
3524;BME280;1776;53.330;11.498;2022-12-29T06:21:46;19141.38;;;-147.39;82.57
3524;BME280;1776;53.330;11.498;2022-12-29T06:24:11;18970.81;;;-147.39;82.25
3524;BME280;1776;53.330;11.498;2022-12-29T06:26:37;19269.31;;;-147.39;82.04
3524;BME280;1776;53.330;11.498;2022-12-29T06:29:02;19198.25;;;-147.39;81.95
3524;BME280;1776;53.330;11.498;2022-12-29T06:31:28;19222.63;;;-147.39;81.52
3524;BME280;1776;53.330;11.498;2022-12-29T06:33:53;19182.00;;;-147.39;81.44
3524;BME280;1776;53.330;11.498;2022-12-29T06:36:18;19289.63;;;-147.39;81.16
3524;BME280;1776;53.330;11.498;2022-12-29T06:38:44;19342.44;;;-147.39;81.04
3524;BME280;1776;53.330;11.498;2022-12-29T06:41:09;19338.38;;;-147.39;80.81
3524;BME280;1776;53.330;11.498;2022-12-29T06:43:34;19381.00;;;-147.39;80.49
3524;BME280;1776;53.330;11.498;2022-12-29T06:46:03;19385.06;;;-147.39;80.62
3524;BME280;1776;53.330;11.498;2022-12-29T06:48:28;19435.84;;;-147.39;80.54
3524;BME280;1776;53.330;11.498;2022-12-29T06:50:54;19433.81;;;-147.39;80.49
3524;BME280;1776;53.330;11.498;2022-12-29T06:53:19;19437.88;;;-147.39;80.41
3524;BME280;1776;53.330;11.498;2022-12-29T06:55:44;19474.44;;;-147.39;80.37
3524;BME280;1776;53.330;11.498;2022-12-29T06:58:09;19470.38;;;-147.39;80.36
3524;BME280;1776;53.330;11.498;2022-12-29T07:00:35;19460.22;;;-147.39;80.12
3524;BME280;1776;53.330;11.498;2022-12-29T07:03:00;19462.25;;;-147.39;80.16
3524;BME280;1776;53.330;11.498;2022-12-29T07:05:26;19494.75;;;-147.39;79.89
3524;BME280;1776;53.330;11.498;2022-12-29T07:07:54;19547.53;;;-147.39;79.95
3524;BME280;1776;53.330;11.498;2022-12-29T07:10:20;19494.75;;;-147.39;79.72
3524;BME280;1776;53.330;11.498;2022-12-29T07:12:45;19541.44;;;-147.39;79.56
3524;BME280;1776;53.330;11.498;2022-12-29T07:15:10;19582.06;;;-147.39;79.51
3524;BME280;1776;53.330;11.498;2022-12-29T07:17:36;19600.34;;;-147.39;79.42
3524;BME280;1776;53.330;11.498;2022-12-29T07:20:01;19645.03;;;-147.39;79.05
3524;BME280;1776;53.330;11.498;2022-12-29T07:22:26;19606.44;;;-147.39;79.13
3524;BME280;1776;53.330;11.498;2022-12-29T07:24:52;19732.34;;;-147.39;79.21
3524;BME280;1776;53.330;11.498;2022-12-29T07:27:17;19659.25;;;-147.39;79.05
3524;BME280;1776;53.330;11.498;2022-12-29T07:29:42;19722.19;;;-147.39;78.74
3524;BME280;1776;53.330;11.498;2022-12-29T07:32:07;19710.03;;;-147.39;78.75
3524;BME280;1776;53.330;11.498;2022-12-29T07:34:33;19710.03;;;-147.39;78.86
3524;BME280;1776;53.330;11.498;2022-12-29T07:36:58;19710.03;;;-147.39;78.78
3524;BME280;1776;53.330;11.498;2022-12-29T07:39:23;19760.78;;;-147.39;78.68
3524;BME280;1776;53.330;11.498;2022-12-29T07:41:48;19837.97;;;-147.39;78.72
3524;BME280;1776;53.330;11.498;2022-12-29T07:44:14;19787.19;;;-147.39;78.26
3524;BME280;1776;53.330;11.498;2022-12-29T07:46:39;19517.06;;;-147.39;78.42
3524;BME280;1776;53.330;11.498;2022-12-29T07:49:04;19805.47;;;-147.39;78.57
3524;BME280;1776;53.330;11.498;2022-12-29T07:51:29;19817.66;;;-147.39;78.24
3524;BME280;1776;53.330;11.498;2022-12-29T07:53:56;19825.78;;;-147.39;78.03
3524;BME280;1776;53.330;11.498;2022-12-29T07:56:21;19858.28;;;-147.39;77.77
3524;BME280;1776;53.330;11.498;2022-12-29T07:58:47;19900.94;;;-147.39;77.90
3524;BME280;1776;53.330;11.498;2022-12-29T08:01:12;19559.72;;;-147.39;77.59
3524;BME280;1776;53.330;11.498;2022-12-29T08:03:37;19876.56;;;-147.39;77.89
3524;BME280;1776;53.330;11.498;2022-12-29T08:06:03;19886.72;;;-147.39;78.19
3524;BME280;1776;53.330;11.498;2022-12-29T08:08:28;19878.59;;;-147.39;78.39
3524;BME280;1776;53.330;11.498;2022-12-29T08:10:53;19850.16;;;-147.39;78.70
3524;BME280;1776;53.330;11.498;2022-12-29T08:13:19;19833.91;;;-147.39;79.10
3524;BME280;1776;53.330;11.498;2022-12-29T08:15:44;19868.44;;;-147.39;79.24
3524;BME280;1776;53.330;11.498;2022-12-29T08:18:09;19781.09;;;-147.39;79.76
3524;BME280;1776;53.330;11.498;2022-12-29T08:20:34;19742.50;;;-147.39;79.83
3524;BME280;1776;53.330;11.498;2022-12-29T08:23:00;19701.91;;;-147.39;80.55
3524;BME280;1776;53.330;11.498;2022-12-29T08:25:25;19687.69;;;-147.39;81.02
3524;BME280;1776;53.330;11.498;2022-12-29T08:27:50;19604.41;;;-147.39;81.17
3524;BME280;1776;53.330;11.498;2022-12-29T08:30:16;19569.88;;;-147.39;81.71
3524;BME280;1776;53.330;11.498;2022-12-29T08:32:41;19519.09;;;-147.39;82.33
3524;BME280;1776;53.330;11.498;2022-12-29T08:35:07;19476.47;;;-147.39;82.79
3524;BME280;1776;53.330;11.498;2022-12-29T08:37:33;19500.84;;;-147.39;83.59
3524;BME280;1776;53.330;11.498;2022-12-29T08:39:58;19356.66;;;-147.39;83.56
3524;BME280;1776;53.330;11.498;2022-12-29T08:42:25;19316.03;;;-147.39;83.77
3524;BME280;1776;53.330;11.498;2022-12-29T08:44:55;19318.06;;;-147.39;83.82
3524;BME280;1776;53.330;11.498;2022-12-29T08:47:21;19320.09;;;-147.39;83.73
3524;BME280;1776;53.330;11.498;2022-12-29T08:49:46;19309.94;;;-147.39;83.59
3524;BME280;1776;53.330;11.498;2022-12-29T08:52:11;19352.59;;;-147.39;83.21
3524;BME280;1776;53.330;11.498;2022-12-29T08:54:36;19431.78;;;-147.39;82.62
3524;BME280;1776;53.330;11.498;2022-12-29T08:57:01;19472.41;;;-147.39;82.08
3524;BME280;1776;53.330;11.498;2022-12-29T08:59:27;19545.50;;;-147.39;81.64
3524;BME280;1776;53.330;11.498;2022-12-29T09:01:52;19598.31;;;-147.39;80.77
3524;BME280;1776;53.330;11.498;2022-12-29T09:04:17;19636.91;;;-147.39;80.39
3524;BME280;1776;53.330;11.498;2022-12-29T09:06:44;19708.00;;;-147.39;80.23
3524;BME280;1776;53.330;11.498;2022-12-29T09:09:09;19777.03;;;-147.39;79.72
3524;BME280;1776;53.330;11.498;2022-12-29T09:11:36;19740.47;;;-147.39;80.16
3524;BME280;1776;53.330;11.498;2022-12-29T09:14:01;19750.63;;;-147.39;79.76
3524;BME280;1776;53.330;11.498;2022-12-29T09:16:26;19783.13;;;-147.39;79.56
3524;BME280;1776;53.330;11.498;2022-12-29T09:18:52;19835.94;;;-147.39;79.16
3524;BME280;1776;53.330;11.498;2022-12-29T09:21:17;19846.09;;;-147.39;78.51
3524;BME280;1776;53.330;11.498;2022-12-29T09:23:42;19909.06;;;-147.39;78.53
3524;BME280;1776;53.330;11.498;2022-12-29T09:26:08;19935.47;;;-147.39;78.34
3524;BME280;1776;53.330;11.498;2022-12-29T09:28:34;20075.59;;;-147.39;76.83
3524;BME280;1776;53.330;11.498;2022-12-29T09:31:00;19943.59;;;-147.39;72.05
3524;BME280;1776;53.330;11.498;2022-12-29T09:33:26;21071.00;;;-147.39;69.43
3524;BME280;1776;53.330;11.498;2022-12-29T09:35:57;21552.56;;;-147.39;67.09
3524;BME280;1776;53.330;11.498;2022-12-29T09:38:23;21674.47;;;-147.39;67.47
3524;BME280;1776;53.330;11.498;2022-12-29T09:40:51;21910.19;;;-147.39;65.98
3524;BME280;1776;53.330;11.498;2022-12-29T09:43:51;22001.63;;;-147.39;65.19
3524;BME280;1776;53.330;11.498;2022-12-29T09:46:49;22174.38;;;-147.39;64.35
3524;BME280;1776;53.330;11.498;2022-12-29T09:49:44;22032.13;;;-147.39;66.36
3524;BME280;1776;53.330;11.498;2022-12-29T09:52:15;21568.81;;;-147.39;69.03
3524;BME280;1776;53.330;11.498;2022-12-29T09:54:56;21926.44;;;-147.39;68.27
3524;BME280;1776;53.330;11.498;2022-12-29T09:57:29;21723.25;;;-147.39;69.74
3524;BME280;1776;53.330;11.498;2022-12-29T10:00:03;21772.00;;;-147.39;69.61
3524;BME280;1776;53.330;11.498;2022-12-29T10:02:39;21869.53;;;-147.39;68.40
3524;BME280;1776;53.330;11.498;2022-12-29T10:08:18;21759.81;;;-147.39;69.75
3524;BME280;1776;53.330;11.498;2022-12-29T10:10:54;21731.38;;;-147.39;69.75
3524;BME280;1776;53.330;11.498;2022-12-29T10:21:41;21757.78;;;-147.39;69.99
3524;BME280;1776;53.330;11.498;2022-12-29T10:24:10;21845.16;;;-147.39;68.43
3524;BME280;1776;53.330;11.498;2022-12-29T10:26:41;21804.53;;;-147.39;69.27
3524;BME280;1776;53.330;11.498;2022-12-29T10:29:18;21774.03;;;-147.39;68.50
3524;BME280;1776;53.330;11.498;2022-12-29T10:31:52;21824.84;;;-147.39;68.48
3524;BME280;1776;53.330;11.498;2022-12-29T10:36:58;21794.38;;;-147.39;69.74
3524;BME280;1776;53.330;11.498;2022-12-29T10:39:30;21741.53;;;-147.39;69.22
3524;BME280;1776;53.330;11.498;2022-12-29T10:42:05;21835.00;;;-147.39;68.70
3524;BME280;1776;53.330;11.498;2022-12-29T10:44:34;21818.75;;;-147.39;68.54
3524;BME280;1776;53.330;11.498;2022-12-29T10:47:04;21853.28;;;-147.39;68.23
3524;BME280;1776;53.330;11.498;2022-12-29T10:49:31;21853.28;;;-147.39;68.62
3524;BME280;1776;53.330;11.498;2022-12-29T10:52:02;21881.75;;;-147.39;67.88
3524;BME280;1776;53.330;11.498;2022-12-29T10:54:51;21871.59;;;-147.39;68.15
3524;BME280;1776;53.330;11.498;2022-12-29T10:57:26;21950.84;;;-147.39;67.03
3524;BME280;1776;53.330;11.498;2022-12-29T10:59:52;21946.78;;;-147.39;66.40
3524;BME280;1776;53.330;11.498;2022-12-29T11:07:31;21993.50;;;-147.39;66.89
3524;BME280;1776;53.330;11.498;2022-12-29T11:10:37;22091.06;;;-147.39;65.43
3524;BME280;1776;53.330;11.498;2022-12-29T11:13:26;22034.16;;;-147.39;66.23
3524;BME280;1776;53.330;11.498;2022-12-29T11:15:52;22123.56;;;-147.39;65.38
3524;BME280;1776;53.330;11.498;2022-12-29T11:18:22;22060.56;;;-147.39;65.55
3524;BME280;1776;53.330;11.498;2022-12-29T11:20:50;22082.94;;;-147.39;66.22
3524;BME280;1776;53.330;11.498;2022-12-29T11:28:35;22176.41;;;-147.39;65.36
3524;BME280;1776;53.330;11.498;2022-12-29T11:31:02;22147.97;;;-147.39;65.26
3524;BME280;1776;53.330;11.498;2022-12-29T11:33:29;22221.13;;;-147.39;64.54
3524;BME280;1776;53.330;11.498;2022-12-29T11:36:02;22215.03;;;-147.39;64.64
3524;BME280;1776;53.330;11.498;2022-12-29T11:38:35;22428.41;;;-147.39;64.04
3524;BME280;1776;53.330;11.498;2022-12-29T11:41:02;22178.44;;;-147.39;65.46
3524;BME280;1776;53.330;11.498;2022-12-29T11:43:34;22204.84;;;-147.39;64.86
3524;BME280;1776;53.330;11.498;2022-12-29T11:46:03;22267.88;;;-147.39;63.80
3524;BME280;1776;53.330;11.498;2022-12-29T11:48:32;22306.47;;;-147.39;64.01
3524;BME280;1776;53.330;11.498;2022-12-29T11:50:59;22320.69;;;-147.39;63.65
3524;BME280;1776;53.330;11.498;2022-12-29T11:56:05;22406.06;;;-147.39;63.39
3524;BME280;1776;53.330;11.498;2022-12-29T11:58:36;22336.97;;;-147.39;63.88
3524;BME280;1776;53.330;11.498;2022-12-29T12:01:06;22499.56;;;-147.39;63.20
3524;BME280;1776;53.330;11.498;2022-12-29T12:03:35;22477.19;;;-147.39;63.37
3524;BME280;1776;53.330;11.498;2022-12-29T12:06:03;21806.56;;;-147.39;63.50
3524;BME280;1776;53.330;11.498;2022-12-29T12:08:55;22442.66;;;-147.39;63.19
3524;BME280;1776;53.330;11.498;2022-12-29T12:11:26;22473.13;;;-147.39;62.42
3524;BME280;1776;53.330;11.498;2022-12-29T12:17:18;22489.38;;;-147.39;62.70
3524;BME280;1776;53.330;11.498;2022-12-29T12:19:49;22548.34;;;-147.39;62.14
3524;BME280;1776;53.330;11.498;2022-12-29T12:22:31;22584.91;;;-147.39;61.61
3524;BME280;1776;53.330;11.498;2022-12-29T12:25:11;22619.47;;;-147.39;62.48
3524;BME280;1776;53.330;11.498;2022-12-29T12:30:16;22641.81;;;-147.39;61.70
3524;BME280;1776;53.330;11.498;2022-12-29T12:32:59;22588.97;;;-147.39;61.95
3524;BME280;1776;53.330;11.498;2022-12-29T12:41:12;22645.88;;;-147.39;62.22
3524;BME280;1776;53.330;11.498;2022-12-29T12:43:44;22605.25;;;-147.39;61.66
3524;BME280;1776;53.330;11.498;2022-12-29T12:51:59;22715.00;;;-147.39;61.68
3524;BME280;1776;53.330;11.498;2022-12-29T12:57:19;22645.88;;;-147.39;61.41
3524;BME280;1776;53.330;11.498;2022-12-29T13:00:02;22708.91;;;-147.39;61.78
3524;BME280;1776;53.330;11.498;2022-12-29T13:02:56;22629.63;;;-147.39;62.56
3524;BME280;1776;53.330;11.498;2022-12-29T13:08:34;22627.59;;;-147.39;61.99
3524;BME280;1776;53.330;11.498;2022-12-29T13:11:17;22664.19;;;-147.39;61.03
3524;BME280;1776;53.330;11.498;2022-12-29T13:16:47;22985.34;;;-147.39;61.40
3524;BME280;1776;53.330;11.498;2022-12-29T13:22:13;22706.88;;;-147.39;60.55
3524;BME280;1776;53.330;11.498;2022-12-29T13:25:13;22788.16;;;-147.39;60.10
3524;BME280;1776;53.330;11.498;2022-12-29T13:30:19;22855.25;;;-147.39;59.87
3524;BME280;1776;53.330;11.498;2022-12-29T13:33:10;22775.97;;;-147.39;59.89
3524;BME280;1776;53.330;11.498;2022-12-29T13:38:34;22800.38;;;-147.39;59.39
3524;BME280;1776;53.330;11.498;2022-12-29T13:41:05;22828.81;;;-147.39;59.61
3524;BME280;1776;53.330;11.498;2022-12-29T13:43:35;22788.16;;;-147.39;60.27
3524;BME280;1776;53.330;11.498;2022-12-29T13:46:18;22910.13;;;-147.39;60.00
3524;BME280;1776;53.330;11.498;2022-12-29T13:48:49;22800.38;;;-147.39;60.56
3524;BME280;1776;53.330;11.498;2022-12-29T13:51:17;22812.56;;;-147.39;60.60
3524;BME280;1776;53.330;11.498;2022-12-29T13:57:01;22767.84;;;-147.39;60.85
3524;BME280;1776;53.330;11.498;2022-12-29T14:02:26;22778.00;;;-147.39;61.33
3524;BME280;1776;53.330;11.498;2022-12-29T14:04:58;22717.03;;;-147.39;61.98
3524;BME280;1776;53.330;11.498;2022-12-29T14:07:23;22745.47;;;-147.39;61.89
3524;BME280;1776;53.330;11.498;2022-12-29T14:09:54;22761.75;;;-147.39;61.67
3524;BME280;1776;53.330;11.498;2022-12-29T14:12:28;22808.50;;;-147.39;61.72
3524;BME280;1776;53.330;11.498;2022-12-29T14:15:06;22733.28;;;-147.39;61.62
3524;BME280;1776;53.330;11.498;2022-12-29T14:17:40;22076.81;;;-147.39;62.21
3524;BME280;1776;53.330;11.498;2022-12-29T14:20:17;22729.22;;;-147.39;62.32
3524;BME280;1776;53.330;11.498;2022-12-29T14:23:17;22704.84;;;-147.39;62.66
3524;BME280;1776;53.330;11.498;2022-12-29T14:25:59;22658.09;;;-147.39;62.88
3524;BME280;1776;53.330;11.498;2022-12-29T14:28:29;22708.91;;;-147.39;62.76
3524;BME280;1776;53.330;11.498;2022-12-29T14:31:32;22696.69;;;-147.39;62.93
3524;BME280;1776;53.330;11.498;2022-12-29T14:44:42;22761.75;;;-147.39;63.24
3524;BME280;1776;53.330;11.498;2022-12-29T14:47:18;22727.19;;;-147.39;62.75
3524;BME280;1776;53.330;11.498;2022-12-29T14:49:45;22103.25;;;-147.39;62.92
3524;BME280;1776;53.330;11.498;2022-12-29T14:52:24;22763.78;;;-147.39;62.77
3524;BME280;1776;53.330;11.498;2022-12-29T14:54:52;22725.16;;;-147.39;62.82
3524;BME280;1776;53.330;11.498;2022-12-29T14:57:32;22692.63;;;-147.39;62.65